Main page
METAR-TAF:

METAR-TAF

Airports :

Newcastle Airport

Newcastle upon Tyne, England

latitude: 55-02N, longitude: 001-42W, elevation: 81 m

Current weather observation

The report was made 42 minutes ago, at 17:50 UTC
Wind 16 kt from the West
Temperature 8°C
Humidity 66%
Pressure 1010 hPa
Visibility 10 km or more
no clouds below 1500 m and no cumulonimbus

METAR: EGNT 211750Z 26016KT CAVOK 08/02 Q1010

Time: 19:32 (18:32 UTC)

Forecast

The report was made 1 hour and 29 minutes ago, at 17:03 UTC
Forecast valid from 21 at 18 UTC to 22 at 18 UTC
Wind 12 kt from the West
Visibility 10 km or more
Scattered clouds at a height of 4000 ft
Temporary
from 21 at 21 UTC to 22 at 09 UTC
Wind 15 kt from the West with gusts up to 25 kt
Probability 30% :
Temporary
from 22 at 15 UTC to 22 at 18 UTC
Visibility: 7000 m
rain showers

TAF: EGNT 211703Z 2118/2218 27012KT 9999 SCT040 TEMPO 2121/2209 28015G25KT PROB30 TEMPO 2215/2218 7000 SHRA

Weather observations and forecasts of more than 4000 airports (METAR and TAF reports).

The available stations are represented by yellow and red dots on the map.

Hover mouse over dot to see the name of the station.

Then click to see weather observations and forecasts.

To change the map : click on the green buttons with a black cross to zoom in, on the green button with a dash to zoom out, or on the green arrows for adjacent maps.


METAR-TAF: